Time;durP1;ratioP1;P1;durP2;ratioP2;P2;SDS_P1;SDS_P2;PMS_P1;PMS_P2;Temp;Humidity;BMP_temperature;BMP_pressure;BME280_temperature;BME280_humidity;BME280_pressure;Samples;Min_cycle;Max_cycle;Signal;HPM_P1;HPM_P2
2023/05/27 00:02:21;;;;;;;27.65;8.27;;;8.10;99.90;;;;;;5055701;28;20146;-67
2023/05/27 00:04:47;;;;;;;25.17;8.70;;;8.10;99.90;;;;;;5055868;28;20503;-67
2023/05/27 00:07:12;;;;;;;25.85;8.80;;;8.00;99.90;;;;;;5055766;28;20037;-67
2023/05/27 00:09:38;;;;;;;29.05;8.85;;;8.00;99.90;;;;;;5055535;28;20041;-67
2023/05/27 00:12:04;;;;;;;22.40;7.93;;;7.90;99.90;;;;;;5055729;28;20513;-67
2023/05/27 00:14:29;;;;;;;24.88;7.75;;;7.90;99.90;;;;;;5055578;28;20043;-67
2023/05/27 00:16:55;;;;;;;24.90;8.40;;;7.90;99.90;;;;;;5055585;28;20029;-66
2023/05/27 00:19:20;;;;;;;26.30;8.93;;;7.80;99.90;;;;;;5055590;28;20036;-66
2023/05/27 00:21:46;;;;;;;25.15;8.35;;;7.80;99.90;;;;;;5055198;28;20478;-66
2023/05/27 00:24:11;;;;;;;23.83;8.82;;;7.70;99.90;;;;;;5055327;28;20394;-66
2023/05/27 00:26:38;;;;;;;25.88;9.55;;;7.70;99.90;;;;;;5055306;28;20052;-66
2023/05/27 00:29:04;;;;;;;28.35;9.55;;;7.70;99.90;;;;;;5055304;28;20029;-66
2023/05/27 00:31:30;;;;;;;25.92;10.82;;;7.70;99.90;;;;;;5055095;28;20040;-66
2023/05/27 00:33:55;;;;;;;24.25;10.23;;;7.70;99.90;;;;;;5055028;28;20025;-67
2023/05/27 00:36:21;;;;;;;26.15;11.00;;;7.60;99.90;;;;;;5055058;28;20029;-66
2023/05/27 00:38:46;;;;;;;23.67;10.27;;;7.60;99.90;;;;;;5055255;28;20384;-66
2023/05/27 00:41:12;;;;;;;26.73;10.23;;;7.60;99.90;;;;;;5055023;28;20029;-66
2023/05/27 00:43:38;;;;;;;24.15;10.10;;;7.50;99.90;;;;;;5053792;28;20058;-66
2023/05/27 00:46:04;;;;;;;27.33;10.30;;;7.50;99.90;;;;;;5053824;28;20029;-66
2023/05/27 00:48:30;;;;;;;26.70;9.93;;;7.50;99.90;;;;;;5055180;28;20025;-66
2023/05/27 00:50:55;;;;;;;26.38;9.60;;;7.50;99.90;;;;;;5054957;28;20503;-66
2023/05/27 00:53:23;;;;;;;25.48;9.85;;;7.50;99.90;;;;;;5054727;28;20036;-66
2023/05/27 00:55:52;;;;;;;22.63;9.55;;;7.40;99.90;;;;;;5054676;28;20494;-66
2023/05/27 00:58:21;;;;;;;23.48;9.23;;;7.40;99.90;;;;;;5054459;28;20029;-66
2023/05/27 01:00:47;;;;;;;26.23;9.13;;;7.40;99.90;;;;;;5054521;28;20032;-66
2023/05/27 01:03:12;;;;;;;22.52;8.93;;;7.40;99.90;;;;;;5054732;28;20028;-66
2023/05/27 01:05:38;;;;;;;26.95;9.40;;;7.40;99.90;;;;;;5054483;28;20021;-67
2023/05/27 01:10:51;;;;;;;22.75;8.73;;;7.30;99.90;;;;;;5111300;27;20438;-67
2023/05/27 01:13:42;;;;;;;21.98;9.05;;;7.20;99.90;;;;;;5111129;28;20111;-66
2023/05/27 01:16:12;;;;;;;25.95;9.40;;;7.10;99.90;;;;;;5110949;28;20435;-66
2023/05/27 01:18:40;;;;;;;24.35;9.10;;;7.10;99.90;;;;;;5111304;28;20055;-66
2023/05/27 01:21:12;;;;;;;26.38;9.68;;;7.00;99.90;;;;;;5111168;28;20427;-66
2023/05/27 01:23:38;;;;;;;31.10;10.60;;;6.90;99.90;;;;;;5110958;28;20020;-66
2023/05/27 01:26:05;;;;;;;26.48;9.77;;;6.90;99.90;;;;;;5110925;28;20031;-66
2023/05/27 01:28:30;;;;;;;26.08;9.73;;;6.90;99.90;;;;;;5110781;28;20067;-66
2023/05/27 01:31:05;;;;;;;21.77;10.57;;;6.90;99.90;;;;;;5110832;28;20052;-66
2023/05/27 01:33:35;;;;;;;26.75;10.30;;;6.80;99.90;;;;;;5110812;28;20016;-66
2023/05/27 01:36:05;;;;;;;26.83;9.85;;;6.80;99.90;;;;;;5110530;28;20031;-66
2023/05/27 01:38:32;;;;;;;29.05;10.38;;;6.70;99.90;;;;;;5110733;28;20050;-66
2023/05/27 01:40:59;;;;;;;26.75;10.40;;;6.70;99.90;;;;;;5110949;28;20081;-66
2023/05/27 01:43:25;;;;;;;25.25;10.25;;;6.60;99.90;;;;;;5110856;28;20542;-67
2023/05/27 01:45:51;;;;;;;29.77;12.45;;;6.60;99.90;;;;;;5110298;28;20112;-66
2023/05/27 01:48:19;;;;;;;27.58;12.20;;;6.60;99.90;;;;;;5110654;28;20100;-67
2023/05/27 01:50:44;;;;;;;32.90;13.02;;;6.60;99.90;;;;;;5110323;28;20024;-66
2023/05/27 01:53:11;;;;;;;32.60;13.18;;;6.70;99.90;;;;;;5110183;28;20512;-66
2023/05/27 01:55:37;;;;;;;33.35;12.30;;;6.80;99.90;;;;;;5110562;28;20556;-66
2023/05/27 01:58:03;;;;;;;34.33;13.35;;;6.90;99.90;;;;;;5090131;28;20028;-66
2023/05/27 02:00:29;;;;;;;27.52;11.55;;;6.90;99.90;;;;;;5089654;28;20385;-66
2023/05/27 02:02:55;;;;;;;34.05;12.27;;;6.90;99.90;;;;;;5090080;28;20386;-66
2023/05/27 02:05:21;;;;;;;32.10;11.75;;;6.90;99.90;;;;;;5089768;28;20028;-66
2023/05/27 02:07:46;;;;;;;29.80;11.90;;;6.90;99.90;;;;;;5089660;28;20056;-67
2023/05/27 02:10:12;;;;;;;33.33;11.55;;;6.80;99.90;;;;;;5089471;28;20564;-67
2023/05/27 02:12:37;;;;;;;30.73;11.70;;;6.80;99.90;;;;;;5089926;28;20020;-66
2023/05/27 02:15:03;;;;;;;32.55;11.43;;;6.70;99.90;;;;;;5089722;28;20576;-66
2023/05/27 02:17:29;;;;;;;31.88;11.52;;;6.70;99.90;;;;;;5089876;28;20020;-67
2023/05/27 02:19:55;;;;;;;25.95;11.23;;;6.80;99.90;;;;;;5089303;28;20028;-66
2023/05/27 02:22:21;;;;;;;30.38;11.45;;;6.70;99.90;;;;;;5075435;28;20035;-66
2023/05/27 02:24:46;;;;;;;33.33;11.60;;;6.70;99.90;;;;;;5076129;28;20037;-66
2023/05/27 02:27:12;;;;;;;39.85;12.05;;;6.70;99.90;;;;;;5076041;28;20044;-66
2023/05/27 02:29:38;;;;;;;31.42;10.95;;;6.60;99.90;;;;;;5075827;28;20029;-66
2023/05/27 02:32:04;;;;;;;34.55;10.88;;;6.60;99.90;;;;;;5075611;28;20024;-66
2023/05/27 02:34:29;;;;;;;29.88;10.90;;;6.60;99.90;;;;;;5075864;28;20020;-66
2023/05/27 02:36:55;;;;;;;34.42;12.20;;;6.60;99.90;;;;;;5075817;28;20025;-66
2023/05/27 02:39:21;;;;;;;37.40;12.05;;;6.60;99.90;;;;;;5075600;28;20033;-66
2023/05/27 02:41:46;;;;;;;34.83;11.20;;;6.60;99.90;;;;;;5075628;28;20059;-66
2023/05/27 02:44:12;;;;;;;36.17;11.88;;;6.60;99.90;;;;;;5075521;28;20024;-66
2023/05/27 02:46:37;;;;;;;35.38;11.75;;;6.70;99.90;;;;;;5075724;28;20032;-66
2023/05/27 02:49:03;;;;;;;31.95;11.48;;;6.70;99.90;;;;;;5075277;28;20478;-66
2023/05/27 02:51:29;;;;;;;30.63;11.10;;;6.70;99.90;;;;;;5075562;28;20475;-66
2023/05/27 02:53:55;;;;;;;37.80;12.73;;;6.70;99.90;;;;;;5075338;28;20024;-66
2023/05/27 02:56:21;;;;;;;36.40;12.52;;;6.70;99.90;;;;;;5075284;28;20063;-66
2023/05/27 02:58:46;;;;;;;40.30;11.60;;;6.70;99.90;;;;;;5075193;28;20108;-66
2023/05/27 03:01:12;;;;;;;35.63;12.05;;;6.70;99.90;;;;;;5075460;28;20162;-66
2023/05/27 03:03:37;;;;;;;36.78;12.05;;;6.70;99.90;;;;;;5075250;28;20077;-66
2023/05/27 03:06:03;;;;;;;34.58;12.68;;;6.80;99.90;;;;;;5075192;28;20115;-66
2023/05/27 03:08:29;;;;;;;41.97;13.75;;;6.80;99.90;;;;;;5074813;28;20039;-66
2023/05/27 03:10:54;;;;;;;43.58;16.58;;;6.80;99.90;;;;;;5075230;28;20028;-66
2023/05/27 03:13:20;;;;;;;44.92;15.93;;;6.80;99.90;;;;;;5074974;28;20074;-66
2023/05/27 03:15:45;;;;;;;36.65;16.70;;;6.80;99.90;;;;;;5074964;28;20025;-66
2023/05/27 03:18:11;;;;;;;35.80;14.57;;;6.90;99.90;;;;;;5074680;28;20026;-66
2023/05/27 03:20:36;;;;;;;37.58;14.02;;;6.90;99.90;;;;;;5074922;28;20037;-66
2023/05/27 03:23:02;;;;;;;34.60;14.43;;;6.80;99.90;;;;;;5074921;28;20137;-66
2023/05/27 03:25:28;;;;;;;40.53;14.18;;;6.80;99.90;;;;;;5075100;28;20029;-66
2023/05/27 03:27:54;;;;;;;30.77;12.30;;;6.70;99.90;;;;;;5074849;28;20029;-66
2023/05/27 03:30:20;;;;;;;35.28;13.27;;;6.60;99.90;;;;;;5074579;28;20547;-66
2023/05/27 03:32:46;;;;;;;35.75;12.60;;;6.60;99.90;;;;;;5073718;28;20024;-66
2023/05/27 03:35:11;;;;;;;39.42;13.88;;;6.50;99.90;;;;;;5074764;28;20112;-66
2023/05/27 03:37:37;;;;;;;43.45;15.95;;;6.60;99.90;;;;;;5074887;28;20029;-67
2023/05/27 03:40:03;;;;;;;39.78;14.90;;;6.60;99.90;;;;;;5074340;28;20028;-66
2023/05/27 03:42:29;;;;;;;40.58;14.15;;;6.70;99.90;;;;;;5074533;28;20032;-66
2023/05/27 03:44:55;;;;;;;38.78;13.32;;;6.70;99.90;;;;;;5074662;28;20040;-66
2023/05/27 03:47:21;;;;;;;34.80;13.20;;;6.80;99.90;;;;;;5074325;28;20028;-66
2023/05/27 03:49:47;;;;;;;38.53;12.75;;;6.90;99.90;;;;;;5074214;28;20029;-66
2023/05/27 03:52:13;;;;;;;40.50;13.52;;;7.00;99.90;;;;;;5074246;28;20027;-66
2023/05/27 03:54:39;;;;;;;40.95;12.73;;;7.10;99.90;;;;;;5074272;28;20028;-66
2023/05/27 03:57:05;;;;;;;37.80;12.98;;;7.10;99.90;;;;;;5074190;28;20029;-66
2023/05/27 03:59:31;;;;;;;39.67;14.00;;;7.10;99.90;;;;;;5074169;28;20029;-67
2023/05/27 04:01:56;;;;;;;30.65;12.48;;;7.10;99.90;;;;;;5074200;28;20084;-66
2023/05/27 04:04:22;;;;;;;32.13;11.18;;;7.10;99.90;;;;;;5073969;28;20024;-66
2023/05/27 04:06:47;;;;;;;36.85;12.00;;;7.10;99.90;;;;;;5074112;28;20043;-66
2023/05/27 04:09:13;;;;;;;32.88;11.60;;;7.10;99.90;;;;;;5073661;28;20086;-66
2023/05/27 04:11:38;;;;;;;30.38;11.43;;;7.20;99.90;;;;;;5073920;28;20031;-66
2023/05/27 04:14:06;;;;;;;24.67;11.77;;;7.20;99.90;;;;;;5073932;28;20095;-66
2023/05/27 04:16:33;;;;;;;27.50;11.95;;;7.30;99.90;;;;;;5073714;28;20093;-66
2023/05/27 04:18:59;;;;;;;35.72;12.77;;;7.30;99.90;;;;;;5074015;28;20033;-66
2023/05/27 04:21:25;;;;;;;31.73;11.65;;;7.40;99.90;;;;;;5073617;28;20401;-66
2023/05/27 04:23:50;;;;;;;31.15;12.10;;;7.50;99.90;;;;;;5073856;28;20028;-66
2023/05/27 04:26:16;;;;;;;32.45;12.00;;;7.60;99.90;;;;;;5073643;28;20100;-66
2023/05/27 04:28:45;;;;;;;39.60;12.10;;;7.70;99.90;;;;;;5073481;28;20035;-66
2023/05/27 04:31:12;;;;;;;37.70;12.45;;;7.80;99.90;;;;;;5073566;28;20432;-66
2023/05/27 04:33:39;;;;;;;41.05;11.32;;;8.10;99.90;;;;;;5073474;28;20478;-66
2023/05/27 04:36:06;;;;;;;26.83;10.45;;;8.50;99.90;;;;;;5073637;28;20104;-66
2023/05/27 04:38:31;;;;;;;31.42;9.57;;;9.10;99.90;;;;;;5073706;28;20565;-66
2023/05/27 04:40:58;;;;;;;29.45;9.77;;;9.60;99.90;;;;;;5073384;28;20056;-67
2023/05/27 04:43:24;;;;;;;20.00;8.45;;;10.50;58.80;;;;;;5073024;28;20048;-67
2023/05/27 04:45:50;;;;;;;24.25;8.30;;;11.30;9.70;;;;;;5073269;28;20016;-66
2023/05/27 04:48:15;;;;;;;22.73;8.95;;;11.70;1.00;;;;;;5073238;28;20024;-67
2023/05/27 04:50:42;;;;;;;18.33;7.63;;;12.40;1.00;;;;;;5073229;28;20025;-67
2023/05/27 04:53:08;;;;;;;22.52;7.63;;;13.30;1.00;;;;;;5073319;28;20055;-67
2023/05/27 04:55:34;;;;;;;19.55;6.90;;;13.60;99.90;;;;;;5073514;28;20028;-67
2023/05/27 04:58:03;;;;;;;21.35;7.32;;;13.90;1.00;;;;;;5073561;28;20078;-67
2023/05/27 05:00:38;;;;;;;20.25;6.63;;;13.40;1.00;;;;;;5072115;28;20028;-67
2023/05/27 05:03:05;;;;;;;19.60;7.75;;;13.60;99.90;;;;;;5073284;28;20531;-67
2023/05/27 05:05:31;;;;;;;18.45;6.88;;;14.10;99.90;;;;;;5073198;28;20031;-67
2023/05/27 05:07:57;;;;;;;17.75;6.95;;;13.40;99.90;;;;;;5073159;28;20024;-67
2023/05/27 05:10:23;;;;;;;21.92;8.18;;;13.00;99.90;;;;;;5072911;28;20098;-67
2023/05/27 05:12:49;;;;;;;22.10;8.60;;;11.90;1.00;;;;;;5073306;28;20056;-67
2023/05/27 05:15:14;;;;;;;24.88;7.97;;;11.60;1.00;;;;;;5073105;28;20075;-67
2023/05/27 05:17:40;;;;;;;18.63;7.82;;;11.60;1.00;;;;;;5073152;28;20086;-67
2023/05/27 05:20:06;;;;;;;18.40;8.60;;;11.80;1.00;;;;;;5073048;28;20039;-67
2023/05/27 05:22:32;;;;;;;26.83;8.57;;;12.10;1.00;;;;;;5072770;28;20025;-67
2023/05/27 05:24:57;;;;;;;19.73;7.90;;;12.60;99.90;;;;;;5073230;28;20032;-67
2023/05/27 05:27:24;;;;;;;20.05;7.57;;;13.10;99.90;;;;;;5073080;28;20086;-67
2023/05/27 05:29:50;;;;;;;19.58;7.07;;;13.80;1.00;;;;;;5072987;28;20131;-67
2023/05/27 05:32:16;;;;;;;19.27;7.80;;;15.30;99.90;;;;;;5072926;28;20099;-67
2023/05/27 05:34:41;;;;;;;21.40;7.53;;;16.50;99.90;;;;;;5072879;28;20104;-68
2023/05/27 05:37:07;;;;;;;23.77;7.85;;;17.10;4.70;;;;;;5073075;28;20379;-68
2023/05/27 05:39:32;;;;;;;18.83;7.00;;;18.00;99.90;;;;;;5073058;28;20035;-68
2023/05/27 05:41:59;;;;;;;17.70;7.28;;;17.80;1.00;;;;;;5072854;28;20029;-68
2023/05/27 05:44:25;;;;;;;20.83;6.75;;;17.80;11.60;;;;;;5072763;28;20056;-68
2023/05/27 05:46:51;;;;;;;16.30;6.95;;;18.00;82.00;;;;;;5072653;28;20028;-68
2023/05/27 05:49:18;;;;;;;19.38;7.00;;;19.30;1.00;;;;;;5072756;28;20029;-68
2023/05/27 05:51:44;;;;;;;14.98;6.60;;;19.10;99.90;;;;;;5072769;28;20051;-68
2023/05/27 05:54:09;;;;;;;18.55;6.47;;;18.00;99.90;;;;;;5071786;28;20493;-68
2023/05/27 05:56:35;;;;;;;12.90;6.07;;;17.90;1.00;;;;;;5073597;28;20497;-68
2023/05/27 05:59:00;;;;;;;17.90;6.53;;;18.50;99.90;;;;;;5076550;28;20037;-68
2023/05/27 06:01:27;;;;;;;20.98;6.70;;;18.40;99.90;;;;;;5076642;28;20036;-68
2023/05/27 06:03:54;;;;;;;18.65;6.95;;;18.00;99.90;;;;;;5076501;28;20033;-68
2023/05/27 06:06:20;;;;;;;15.55;7.00;;;18.20;99.90;;;;;;5076334;28;20387;-68
2023/05/27 06:08:45;;;;;;;14.27;6.18;;;18.90;99.90;;;;;;5076146;28;20041;-68
2023/05/27 06:11:11;;;;;;;18.17;7.07;;;19.70;99.90;;;;;;5076177;28;20029;-68
2023/05/27 06:13:37;;;;;;;12.90;6.38;;;20.40;99.90;;;;;;5076190;28;20422;-68
2023/05/27 06:16:02;;;;;;;20.17;7.13;;;20.60;99.90;;;;;;5076411;28;20053;-68
2023/05/27 06:18:28;;;;;;;22.63;7.40;;;20.10;99.90;;;;;;5076219;28;20030;-68
2023/05/27 06:20:53;;;;;;;18.35;6.53;;;20.20;99.90;;;;;;5075967;28;20067;-68
2023/05/27 06:23:19;;;;;;;18.77;7.28;;;20.30;99.90;;;;;;5075820;28;20029;-68
2023/05/27 06:25:44;;;;;;;18.38;6.70;;;20.50;99.90;;;;;;5075988;28;20032;-68
2023/05/27 06:28:10;;;;;;;20.08;6.40;;;20.10;99.90;;;;;;5075914;28;20108;-68
2023/05/27 06:30:37;;;;;;;15.68;6.10;;;20.30;99.90;;;;;;5075746;28;20024;-68
2023/05/27 06:33:02;;;;;;;17.10;6.07;;;20.60;99.90;;;;;;5075864;28;20020;-68
2023/05/27 06:35:28;;;;;;;16.45;6.40;;;21.10;99.90;;;;;;5075694;28;20051;-69
2023/05/27 06:37:54;;;;;;;15.18;6.80;;;21.40;53.90;;;;;;5075903;28;20040;-68
2023/05/27 06:40:19;;;;;;;18.05;6.90;;;20.70;88.30;;;;;;5075918;28;20036;-68
2023/05/27 06:42:45;;;;;;;17.08;6.85;;;21.10;99.90;;;;;;5075454;28;20029;-68
2023/05/27 06:45:10;;;;;;;16.50;6.80;;;21.40;99.90;;;;;;5075613;28;20040;-68
2023/05/27 06:47:36;;;;;;;19.83;6.43;;;21.20;99.90;;;;;;5075846;28;20420;-68
2023/05/27 06:50:02;;;;;;;20.98;6.50;;;21.00;99.90;;;;;;5075510;28;20037;-68
2023/05/27 06:52:27;;;;;;;17.80;6.68;;;21.70;99.90;;;;;;5075549;28;20488;-68
2023/05/27 06:54:53;;;;;;;14.20;6.88;;;22.00;99.90;;;;;;5075410;28;20036;-68
2023/05/27 06:57:18;;;;;;;16.23;6.43;;;21.10;93.00;;;;;;5075585;28;20028;-68
2023/05/27 06:59:44;;;;;;;17.83;6.65;;;21.50;99.90;;;;;;5075327;28;20032;-68
2023/05/27 07:02:09;;;;;;;20.08;6.57;;;21.50;99.90;;;;;;5075477;28;20020;-68
2023/05/27 07:04:35;;;;;;;18.55;6.47;;;20.90;99.90;;;;;;5075242;28;20032;-68
2023/05/27 07:07:02;;;;;;;18.40;6.78;;;20.40;99.90;;;;;;5075293;28;20486;-68
2023/05/27 07:09:27;;;;;;;18.33;7.03;;;20.60;99.90;;;;;;5074982;28;20049;-68
2023/05/27 07:11:53;;;;;;;17.88;7.03;;;21.40;99.90;;;;;;5075046;28;20111;-68
2023/05/27 07:14:19;;;;;;;17.13;6.95;;;22.00;99.90;;;;;;5075002;28;20025;-68
2023/05/27 07:16:44;;;;;;;17.35;7.18;;;22.30;99.90;;;;;;5074977;28;20024;-68
2023/05/27 07:19:10;;;;;;;21.42;7.35;;;21.90;82.90;;;;;;5074704;28;20107;-68
2023/05/27 07:21:36;;;;;;;20.88;7.63;;;22.50;87.60;;;;;;5074882;28;20070;-68
2023/05/27 07:24:03;;;;;;;18.88;7.07;;;22.10;99.90;;;;;;5074993;28;20478;-68
2023/05/27 07:26:30;;;;;;;17.38;7.05;;;22.20;99.90;;;;;;5074941;28;20020;-68
2023/05/27 07:28:58;;;;;;;17.85;7.10;;;22.40;99.90;;;;;;5074892;28;20031;-68
2023/05/27 07:31:25;;;;;;;17.50;6.47;;;22.70;99.90;;;;;;5074673;28;20061;-68
2023/05/27 07:33:51;;;;;;;18.00;6.53;;;21.60;98.20;;;;;;5074866;28;20078;-68
2023/05/27 07:36:16;;;;;;;16.33;7.18;;;22.00;99.90;;;;;;5074618;28;20475;-68
2023/05/27 07:38:42;;;;;;;20.02;7.07;;;21.50;99.90;;;;;;5074717;28;20478;-68
2023/05/27 07:41:08;;;;;;;15.55;7.00;;;22.70;99.90;;;;;;5074651;28;20048;-68
2023/05/27 07:43:33;;;;;;;18.70;6.93;;;23.60;46.90;;;;;;5074621;28;20021;-68
2023/05/27 07:45:59;;;;;;;19.85;6.75;;;22.70;99.90;;;;;;5074628;28;20048;-69
2023/05/27 07:48:24;;;;;;;19.27;6.90;;;23.60;62.10;;;;;;5074305;28;20035;-68
2023/05/27 07:50:50;;;;;;;15.18;6.63;;;24.10;99.90;;;;;;5074199;28;20025;-68
2023/05/27 07:53:15;;;;;;;17.45;6.55;;;23.70;99.90;;;;;;5074373;28;20039;-68
2023/05/27 07:55:41;;;;;;;14.85;6.10;;;23.40;99.90;;;;;;5074258;28;20393;-69
2023/05/27 07:58:06;;;;;;;18.77;6.57;;;23.60;99.90;;;;;;5074369;28;20029;-68
2023/05/27 08:00:32;;;;;;;14.30;6.43;;;23.80;99.90;;;;;;5073956;28;20016;-69
2023/05/27 08:02:57;;;;;;;15.00;7.18;;;23.20;99.90;;;;;;5074194;28;20535;-68
2023/05/27 08:05:23;;;;;;;15.85;6.47;;;23.80;1.00;;;;;;5073990;28;20027;-68
2023/05/27 08:07:48;;;;;;;20.65;7.50;;;23.50;1.00;;;;;;5074136;28;20501;-68
2023/05/27 08:10:14;;;;;;;16.65;7.38;;;23.80;1.00;;;;;;5073565;28;20045;-68
2023/05/27 08:12:39;;;;;;;17.08;6.63;;;24.00;1.00;;;;;;5073915;28;20496;-68
2023/05/27 08:15:06;;;;;;;17.30;6.72;;;23.80;1.00;;;;;;5073926;28;20027;-69
2023/05/27 08:17:31;;;;;;;17.00;7.22;;;24.00;1.00;;;;;;5074036;28;20020;-68
2023/05/27 08:19:57;;;;;;;16.38;7.00;;;24.10;99.90;;;;;;5073194;28;20025;-69
2023/05/27 08:22:22;;;;;;;16.55;6.63;;;24.10;99.90;;;;;;5073808;28;20036;-68
2023/05/27 08:24:49;;;;;;;20.08;7.53;;;24.30;99.90;;;;;;5073644;28;20490;-68
2023/05/27 08:27:16;;;;;;;18.38;7.65;;;23.80;99.90;;;;;;5072365;28;20030;-68
2023/05/27 08:29:42;;;;;;;16.80;6.85;;;24.00;99.90;;;;;;5072352;28;20078;-68
2023/05/27 08:32:07;;;;;;;14.43;6.43;;;24.00;99.90;;;;;;5073509;28;20024;-69
2023/05/27 08:34:33;;;;;;;18.33;7.07;;;24.70;99.90;;;;;;5073573;28;20031;-69
2023/05/27 08:36:59;;;;;;;15.70;6.88;;;24.90;99.90;;;;;;5073662;28;20028;-69
2023/05/27 08:39:26;;;;;;;18.33;7.70;;;25.30;99.90;;;;;;5073534;28;20107;-68
2023/05/27 08:41:53;;;;;;;17.40;7.20;;;24.30;99.90;;;;;;5073426;28;20071;-68
2023/05/27 08:44:21;;;;;;;17.58;6.88;;;24.40;99.90;;;;;;5073549;28;20477;-68
2023/05/27 08:46:50;;;;;;;18.60;7.20;;;24.10;99.90;;;;;;5073549;28;20036;-68
2023/05/27 08:49:16;;;;;;;20.60;7.40;;;24.20;99.90;;;;;;5073426;28;20489;-68
2023/05/27 08:51:41;;;;;;;17.27;7.07;;;23.80;99.90;;;;;;5073419;28;20032;-68
2023/05/27 08:54:08;;;;;;;17.58;6.63;;;24.50;99.90;;;;;;5073154;28;20076;-68
2023/05/27 08:56:35;;;;;;;18.00;6.85;;;24.90;99.90;;;;;;5073503;28;20020;-69
2023/05/27 08:59:01;;;;;;;14.35;6.45;;;24.50;99.90;;;;;;5073481;28;20508;-69
2023/05/27 09:01:27;;;;;;;13.60;5.75;;;24.50;99.90;;;;;;5073181;28;20032;-68
2023/05/27 09:03:55;;;;;;;17.08;6.70;;;24.90;99.90;;;;;;5073365;28;20025;-68
2023/05/27 09:06:20;;;;;;;17.98;6.35;;;25.40;99.90;;;;;;5073425;28;20028;-69
2023/05/27 09:08:46;;;;;;;18.30;6.90;;;25.80;1.00;;;;;;5072941;28;20395;-68
2023/05/27 09:11:28;;;;;;;15.68;6.40;;;25.30;1.00;;;;;;5073157;28;20074;-68
2023/05/27 09:13:56;;;;;;;12.88;5.70;;;24.90;1.00;;;;;;5073331;28;20021;-68
2023/05/27 09:16:22;;;;;;;17.83;5.88;;;25.30;1.00;;;;;;5072877;28;20021;-68
2023/05/27 09:18:48;;;;;;;14.40;5.75;;;24.90;36.30;;;;;;5073293;28;20036;-68
2023/05/27 09:21:14;;;;;;;17.23;6.30;;;24.90;99.90;;;;;;5072939;28;20025;-69
2023/05/27 09:23:40;;;;;;;17.55;6.88;;;24.40;99.90;;;;;;5073226;28;20398;-69
2023/05/27 09:26:09;;;;;;;15.32;6.57;;;24.00;99.90;;;;;;5073175;28;20028;-68
2023/05/27 09:28:36;;;;;;;15.75;5.65;;;24.40;1.00;;;;;;5073031;28;20525;-68
2023/05/27 09:31:04;;;;;;;13.52;6.30;;;25.50;99.90;;;;;;5074168;28;20056;-68
2023/05/27 09:33:32;;;;;;;13.93;5.97;;;25.60;99.90;;;;;;5075893;28;20021;-68
2023/05/27 09:35:58;;;;;;;13.18;5.93;;;24.70;99.90;;;;;;5076891;28;20017;-68
2023/05/27 09:38:24;;;;;;;15.98;6.40;;;24.50;1.00;;;;;;5077039;28;20063;-68
2023/05/27 09:40:50;;;;;;;16.77;6.32;;;24.00;1.00;;;;;;5076668;28;20060;-68
2023/05/27 09:43:16;;;;;;;14.68;5.68;;;24.00;7.10;;;;;;5076905;28;20029;-68
2023/05/27 09:45:43;;;;;;;14.77;5.80;;;24.40;1.00;;;;;;5076730;28;20390;-68
2023/05/27 09:48:11;;;;;;;18.80;6.40;;;24.70;37.40;;;;;;5076726;28;20029;-68
2023/05/27 09:50:38;;;;;;;15.90;5.70;;;24.90;99.90;;;;;;5076642;28;20036;-68
2023/05/27 09:53:04;;;;;;;13.85;5.32;;;25.20;99.90;;;;;;5076893;28;20024;-68
2023/05/27 09:55:30;;;;;;;14.18;5.85;;;25.00;1.00;;;;;;5076488;28;20024;-68
2023/05/27 09:57:56;;;;;;;15.88;6.45;;;24.80;16.50;;;;;;5076435;28;20496;-68
2023/05/27 10:00:23;;;;;;;13.20;6.03;;;24.80;1.00;;;;;;5076481;28;20394;-69
2023/05/27 10:02:49;;;;;;;13.25;5.75;;;24.60;99.90;;;;;;5076626;28;20115;-68
2023/05/27 10:05:16;;;;;;;17.90;6.18;;;24.00;99.90;;;;;;5076406;28;20471;-68
2023/05/27 10:07:44;;;;;;;15.68;5.60;;;24.60;99.90;;;;;;5076482;28;20032;-68
2023/05/27 10:10:16;;;;;;;13.25;6.03;;;24.30;99.90;;;;;;5074870;28;20045;-68
2023/05/27 10:12:44;;;;;;;17.08;5.75;;;24.70;99.90;;;;;;5076408;28;20025;-68
2023/05/27 10:15:24;;;;;;;16.73;6.75;;;24.80;99.90;;;;;;5076023;28;20023;-68
2023/05/27 10:17:55;;;;;;;17.35;6.00;;;24.90;99.90;;;;;;5076131;28;20471;-68
2023/05/27 10:20:48;;;;;;;17.50;5.80;;;24.70;99.90;;;;;;5076013;28;20039;-68
2023/05/27 10:23:17;;;;;;;13.27;5.38;;;25.40;1.00;;;;;;5074763;28;20029;-68
2023/05/27 10:25:54;;;;;;;16.58;6.10;;;25.20;99.90;;;;;;5075926;28;20032;-68
2023/05/27 10:28:28;;;;;;;12.88;5.82;;;25.00;99.90;;;;;;5075869;28;20078;-68
2023/05/27 10:31:04;;;;;;;14.10;5.95;;;24.70;1.00;;;;;;5075782;28;20032;-68
2023/05/27 10:33:33;;;;;;;16.58;5.90;;;24.80;1.00;;;;;;5074820;28;20529;-68
2023/05/27 10:36:22;;;;;;;12.95;5.38;;;24.90;55.20;;;;;;5075896;28;20028;-68
2023/05/27 10:39:19;;;;;;;16.85;5.63;;;24.20;99.90;;;;;;5075741;28;20036;-68
2023/05/27 10:41:53;;;;;;;12.63;5.70;;;24.10;1.00;;;;;;5075084;28;20020;-68
2023/05/27 10:44:32;;;;;;;14.60;5.95;;;24.20;1.00;;;;;;5075647;28;20032;-68
2023/05/27 10:47:01;;;;;;;16.60;6.10;;;23.90;1.00;;;;;;5075482;28;20021;-68
2023/05/27 10:49:32;;;;;;;16.30;6.20;;;23.60;99.90;;;;;;5075600;28;20028;-68
2023/05/27 10:52:04;;;;;;;15.30;6.65;;;23.60;1.00;;;;;;5075707;28;20474;-68
2023/05/27 10:54:33;;;;;;;19.10;7.25;;;22.50;1.00;;;;;;5075251;28;20060;-68
2023/05/27 10:56:59;;;;;;;18.52;6.93;;;22.60;14.40;;;;;;5075405;28;20024;-68
2023/05/27 10:59:33;;;;;;;16.65;6.85;;;22.70;1.00;;;;;;5075448;28;20059;-68
2023/05/27 11:01:59;;;;;;;19.83;6.88;;;22.50;30.60;;;;;;5075056;28;20024;-68
2023/05/27 11:04:24;;;;;;;19.65;7.55;;;22.30;99.90;;;;;;5075299;28;20036;-68
2023/05/27 11:06:59;;;;;;;19.83;7.53;;;22.10;1.00;;;;;;5075382;28;20086;-68
2023/05/27 11:09:25;;;;;;;17.48;7.05;;;22.20;1.00;;;;;;5074961;28;20430;-68
2023/05/27 11:11:51;;;;;;;15.80;7.45;;;22.40;1.00;;;;;;5075314;28;20021;-68
2023/05/27 11:14:19;;;;;;;15.45;7.00;;;22.60;1.00;;;;;;5075091;28;20482;-68
2023/05/27 11:16:48;;;;;;;14.85;6.85;;;23.00;1.00;;;;;;5075071;28;20017;-68
2023/05/27 11:19:14;;;;;;;14.57;6.90;;;22.60;1.00;;;;;;5074774;28;20020;-68
2023/05/27 11:21:45;;;;;;;17.60;6.32;;;22.40;1.00;;;;;;5075233;28;20132;-68
2023/05/27 11:24:19;;;;;;;21.45;8.00;;;22.10;1.00;;;;;;5074954;28;20024;-68
2023/05/27 11:26:47;;;;;;;16.63;6.13;;;21.90;1.00;;;;;;5075032;28;20054;-69
2023/05/27 11:29:13;;;;;;;17.90;7.13;;;22.00;99.90;;;;;;5074915;28;20033;-68
2023/05/27 11:31:40;;;;;;;19.85;7.30;;;21.90;99.90;;;;;;5075107;28;20017;-68
2023/05/27 11:34:14;;;;;;;18.17;6.63;;;21.70;99.90;;;;;;5074745;28;20032;-68
2023/05/27 11:36:40;;;;;;;20.13;7.03;;;22.40;1.00;;;;;;5074860;28;20032;-68
2023/05/27 11:39:09;;;;;;;15.48;7.47;;;22.60;1.00;;;;;;5074671;28;20032;-68
2023/05/27 11:41:35;;;;;;;16.85;6.93;;;22.60;28.70;;;;;;5074645;28;20024;-68
2023/05/27 11:44:05;;;;;;;18.15;6.22;;;22.70;1.00;;;;;;5074592;28;20047;-68
2023/05/27 11:46:47;;;;;;;15.57;6.30;;;22.20;1.00;;;;;;5074322;28;20039;-68
2023/05/27 11:49:14;;;;;;;17.38;6.30;;;22.40;1.00;;;;;;5074667;28;20067;-68
2023/05/27 11:51:42;;;;;;;16.33;6.40;;;22.60;1.00;;;;;;5074368;28;20367;-68
2023/05/27 11:54:22;;;;;;;18.13;7.00;;;22.50;1.00;;;;;;5073623;28;20070;-68
2023/05/27 11:56:48;;;;;;;14.43;6.47;;;22.60;1.00;;;;;;5074306;28;20036;-68
2023/05/27 11:59:14;;;;;;;18.27;6.75;;;22.30;1.00;;;;;;5074390;28;20477;-68
2023/05/27 12:01:41;;;;;;;16.73;5.90;;;22.30;1.00;;;;;;5074349;28;20040;-68
2023/05/27 12:04:06;;;;;;;16.83;6.55;;;22.40;1.00;;;;;;5074316;28;20028;-68
2023/05/27 12:06:32;;;;;;;15.20;6.38;;;22.60;1.00;;;;;;5074049;28;20039;-68
2023/05/27 12:08:58;;;;;;;14.30;5.53;;;22.50;99.90;;;;;;5073796;28;20053;-68
2023/05/27 12:11:23;;;;;;;15.93;6.18;;;22.70;1.00;;;;;;5074200;28;20062;-68
2023/05/27 12:13:51;;;;;;;16.38;6.13;;;22.50;1.00;;;;;;5074073;28;20032;-68
2023/05/27 12:16:16;;;;;;;13.75;6.35;;;22.50;1.00;;;;;;5073892;28;20482;-68
2023/05/27 12:18:42;;;;;;;14.20;6.38;;;22.80;99.90;;;;;;5073507;28;20035;-68
2023/05/27 12:21:07;;;;;;;15.90;6.53;;;22.60;99.90;;;;;;5074030;28;20032;-68
2023/05/27 12:23:33;;;;;;;12.30;6.13;;;22.40;99.90;;;;;;5073464;28;20047;-68
2023/05/27 12:25:59;;;;;;;18.27;6.75;;;22.30;99.90;;;;;;5073779;28;20478;-68
2023/05/27 12:28:26;;;;;;;14.40;6.38;;;22.40;99.90;;;;;;5073753;28;20031;-68
2023/05/27 12:30:51;;;;;;;14.00;5.88;;;22.30;99.90;;;;;;5073563;28;20553;-68
2023/05/27 12:33:17;;;;;;;15.27;5.88;;;22.40;99.90;;;;;;5073576;28;20062;-68
2023/05/27 12:35:43;;;;;;;15.50;6.00;;;22.60;99.90;;;;;;5073567;28;20103;-68
2023/05/27 12:38:09;;;;;;;14.00;6.53;;;22.30;99.90;;;;;;5073592;28;20440;-68
2023/05/27 12:40:35;;;;;;;14.23;6.47;;;22.10;99.90;;;;;;5073621;28;20532;-68
2023/05/27 12:43:03;;;;;;;13.73;6.30;;;22.30;99.90;;;;;;5073480;28;20119;-68